sensor_id;sensor_type;location;lat;lon;timestamp;P1;durP1;ratioP1;P2;durP2;ratioP2
32874;SDS011;40468;42.128;24.750;2022-09-09T00:00:26;12.73;;;7.68;;
32874;SDS011;40468;42.128;24.750;2022-09-09T00:02:04;15.57;;;8.20;;
32874;SDS011;40468;42.128;24.750;2022-09-09T00:03:47;12.13;;;8.52;;
32874;SDS011;40468;42.128;24.750;2022-09-09T00:05:28;14.73;;;8.65;;
32874;SDS011;40468;42.128;24.750;2022-09-09T00:07:07;20.50;;;8.75;;
32874;SDS011;40468;42.128;24.750;2022-09-09T00:08:58;12.13;;;7.90;;
32874;SDS011;40468;42.128;24.750;2022-09-09T00:10:36;11.27;;;7.20;;
32874;SDS011;40468;42.128;24.750;2022-09-09T00:12:12;14.27;;;8.05;;
32874;SDS011;40468;42.128;24.750;2022-09-09T00:13:48;9.73;;;7.32;;
32874;SDS011;40468;42.128;24.750;2022-09-09T00:15:22;15.70;;;7.45;;
32874;SDS011;40468;42.128;24.750;2022-09-09T00:16:59;16.95;;;7.07;;
32874;SDS011;40468;42.128;24.750;2022-09-09T00:18:44;12.43;;;7.60;;
32874;SDS011;40468;42.128;24.750;2022-09-09T00:20:24;14.05;;;8.20;;
32874;SDS011;40468;42.128;24.750;2022-09-09T00:22:08;13.40;;;7.50;;
32874;SDS011;40468;42.128;24.750;2022-09-09T00:23:48;13.90;;;7.57;;
32874;SDS011;40468;42.128;24.750;2022-09-09T00:25:23;14.25;;;8.32;;
32874;SDS011;40468;42.128;24.750;2022-09-09T00:27:01;12.68;;;8.05;;
32874;SDS011;40468;42.128;24.750;2022-09-09T00:28:38;12.15;;;7.97;;
32874;SDS011;40468;42.128;24.750;2022-09-09T00:30:13;13.57;;;7.65;;
32874;SDS011;40468;42.128;24.750;2022-09-09T00:31:49;12.52;;;7.68;;
32874;SDS011;40468;42.128;24.750;2022-09-09T00:33:25;12.02;;;8.48;;
32874;SDS011;40468;42.128;24.750;2022-09-09T00:34:59;14.48;;;8.45;;
32874;SDS011;40468;42.128;24.750;2022-09-09T00:36:35;11.88;;;7.53;;
32874;SDS011;40468;42.128;24.750;2022-09-09T00:38:10;10.25;;;7.78;;
32874;SDS011;40468;42.128;24.750;2022-09-09T00:39:45;14.85;;;7.65;;
32874;SDS011;40468;42.128;24.750;2022-09-09T00:41:20;12.23;;;7.72;;
32874;SDS011;40468;42.128;24.750;2022-09-09T00:43:09;10.65;;;7.60;;
32874;SDS011;40468;42.128;24.750;2022-09-09T00:44:53;11.65;;;7.68;;
32874;SDS011;40468;42.128;24.750;2022-09-09T00:46:40;13.25;;;8.07;;
32874;SDS011;40468;42.128;24.750;2022-09-09T00:48:19;15.18;;;7.93;;
32874;SDS011;40468;42.128;24.750;2022-09-09T00:49:57;14.48;;;7.97;;
32874;SDS011;40468;42.128;24.750;2022-09-09T00:51:35;15.68;;;7.82;;
32874;SDS011;40468;42.128;24.750;2022-09-09T00:53:22;13.38;;;7.40;;
32874;SDS011;40468;42.128;24.750;2022-09-09T00:55:05;13.50;;;7.50;;
32874;SDS011;40468;42.128;24.750;2022-09-09T00:56:44;11.57;;;7.70;;
32874;SDS011;40468;42.128;24.750;2022-09-09T00:58:21;12.07;;;7.45;;
32874;SDS011;40468;42.128;24.750;2022-09-09T00:59:56;13.07;;;7.75;;
32874;SDS011;40468;42.128;24.750;2022-09-09T01:01:35;14.43;;;8.23;;
32874;SDS011;40468;42.128;24.750;2022-09-09T01:05:05;12.18;;;7.88;;
32874;SDS011;40468;42.128;24.750;2022-09-09T01:06:43;11.73;;;7.57;;
32874;SDS011;40468;42.128;24.750;2022-09-09T01:08:28;15.75;;;7.93;;
32874;SDS011;40468;42.128;24.750;2022-09-09T01:10:16;13.77;;;7.07;;
32874;SDS011;40468;42.128;24.750;2022-09-09T01:11:59;13.60;;;8.05;;
32874;SDS011;40468;42.128;24.750;2022-09-09T01:13:38;11.43;;;7.57;;
32874;SDS011;40468;42.128;24.750;2022-09-09T01:15:15;10.93;;;8.25;;
32874;SDS011;40468;42.128;24.750;2022-09-09T01:16:51;15.48;;;8.50;;
32874;SDS011;40468;42.128;24.750;2022-09-09T01:18:31;21.08;;;8.95;;
32874;SDS011;40468;42.128;24.750;2022-09-09T01:20:10;14.05;;;9.45;;
32874;SDS011;40468;42.128;24.750;2022-09-09T01:21:46;16.63;;;9.68;;
32874;SDS011;40468;42.128;24.750;2022-09-09T01:23:30;14.55;;;8.80;;
32874;SDS011;40468;42.128;24.750;2022-09-09T01:25:22;16.15;;;8.77;;
32874;SDS011;40468;42.128;24.750;2022-09-09T01:27:14;17.75;;;9.20;;
32874;SDS011;40468;42.128;24.750;2022-09-09T01:28:49;23.83;;;10.15;;
32874;SDS011;40468;42.128;24.750;2022-09-09T01:30:22;19.67;;;9.57;;
32874;SDS011;40468;42.128;24.750;2022-09-09T01:31:56;16.03;;;8.70;;
32874;SDS011;40468;42.128;24.750;2022-09-09T01:33:29;14.05;;;8.70;;
32874;SDS011;40468;42.128;24.750;2022-09-09T01:35:00;16.30;;;9.13;;
32874;SDS011;40468;42.128;24.750;2022-09-09T01:36:35;15.63;;;9.30;;
32874;SDS011;40468;42.128;24.750;2022-09-09T01:38:13;14.18;;;9.40;;
32874;SDS011;40468;42.128;24.750;2022-09-09T01:39:45;13.43;;;8.68;;
32874;SDS011;40468;42.128;24.750;2022-09-09T01:41:17;17.20;;;8.38;;
32874;SDS011;40468;42.128;24.750;2022-09-09T01:42:51;18.27;;;9.10;;
32874;SDS011;40468;42.128;24.750;2022-09-09T01:44:24;15.32;;;9.02;;
32874;SDS011;40468;42.128;24.750;2022-09-09T01:45:58;14.05;;;9.80;;
32874;SDS011;40468;42.128;24.750;2022-09-09T01:47:31;22.15;;;9.95;;
32874;SDS011;40468;42.128;24.750;2022-09-09T01:49:04;19.42;;;9.73;;
32874;SDS011;40468;42.128;24.750;2022-09-09T01:50:38;20.80;;;9.30;;
32874;SDS011;40468;42.128;24.750;2022-09-09T01:52:10;15.27;;;9.00;;
32874;SDS011;40468;42.128;24.750;2022-09-09T01:53:41;16.58;;;9.88;;
32874;SDS011;40468;42.128;24.750;2022-09-09T01:55:14;19.48;;;9.25;;
32874;SDS011;40468;42.128;24.750;2022-09-09T01:56:47;14.00;;;9.45;;
32874;SDS011;40468;42.128;24.750;2022-09-09T02:00:08;15.77;;;9.15;;
32874;SDS011;40468;42.128;24.750;2022-09-09T02:01:48;10.73;;;7.85;;
32874;SDS011;40468;42.128;24.750;2022-09-09T02:03:27;15.40;;;8.65;;
32874;SDS011;40468;42.128;24.750;2022-09-09T02:05:02;11.32;;;8.20;;
32874;SDS011;40468;42.128;24.750;2022-09-09T02:06:45;18.23;;;8.63;;
32874;SDS011;40468;42.128;24.750;2022-09-09T02:08:20;18.55;;;8.68;;
32874;SDS011;40468;42.128;24.750;2022-09-09T02:09:57;10.68;;;8.45;;
32874;SDS011;40468;42.128;24.750;2022-09-09T02:11:33;15.23;;;8.10;;
32874;SDS011;40468;42.128;24.750;2022-09-09T02:13:08;14.77;;;8.57;;
32874;SDS011;40468;42.128;24.750;2022-09-09T02:14:45;15.10;;;8.88;;
32874;SDS011;40468;42.128;24.750;2022-09-09T02:16:22;14.93;;;8.88;;
32874;SDS011;40468;42.128;24.750;2022-09-09T02:17:57;12.20;;;8.00;;
32874;SDS011;40468;42.128;24.750;2022-09-09T02:19:34;13.45;;;8.48;;
32874;SDS011;40468;42.128;24.750;2022-09-09T02:21:09;16.55;;;8.23;;
32874;SDS011;40468;42.128;24.750;2022-09-09T02:22:44;15.57;;;7.85;;
32874;SDS011;40468;42.128;24.750;2022-09-09T02:24:19;21.50;;;8.63;;
32874;SDS011;40468;42.128;24.750;2022-09-09T02:25:52;15.68;;;8.82;;
32874;SDS011;40468;42.128;24.750;2022-09-09T02:28:57;19.38;;;9.07;;
32874;SDS011;40468;42.128;24.750;2022-09-09T02:30:34;13.95;;;8.85;;
32874;SDS011;40468;42.128;24.750;2022-09-09T02:32:08;21.50;;;8.73;;
32874;SDS011;40468;42.128;24.750;2022-09-09T02:33:47;15.23;;;9.20;;
32874;SDS011;40468;42.128;24.750;2022-09-09T02:35:23;18.05;;;9.48;;
32874;SDS011;40468;42.128;24.750;2022-09-09T02:36:57;17.48;;;10.07;;
32874;SDS011;40468;42.128;24.750;2022-09-09T02:38:33;18.50;;;9.95;;
32874;SDS011;40468;42.128;24.750;2022-09-09T02:40:10;21.85;;;9.93;;
32874;SDS011;40468;42.128;24.750;2022-09-09T02:41:42;16.77;;;10.13;;
32874;SDS011;40468;42.128;24.750;2022-09-09T02:43:14;19.83;;;9.07;;
32874;SDS011;40468;42.128;24.750;2022-09-09T02:44:48;18.48;;;9.93;;
32874;SDS011;40468;42.128;24.750;2022-09-09T02:46:24;18.08;;;9.48;;
32874;SDS011;40468;42.128;24.750;2022-09-09T02:48:09;19.73;;;9.38;;
32874;SDS011;40468;42.128;24.750;2022-09-09T02:49:48;15.05;;;9.13;;
32874;SDS011;40468;42.128;24.750;2022-09-09T02:51:34;17.98;;;9.60;;
32874;SDS011;40468;42.128;24.750;2022-09-09T02:53:12;15.23;;;9.38;;
32874;SDS011;40468;42.128;24.750;2022-09-09T02:54:48;16.58;;;9.35;;
32874;SDS011;40468;42.128;24.750;2022-09-09T02:56:27;15.45;;;8.73;;
32874;SDS011;40468;42.128;24.750;2022-09-09T02:58:04;10.75;;;7.63;;
32874;SDS011;40468;42.128;24.750;2022-09-09T02:59:38;14.15;;;8.48;;
32874;SDS011;40468;42.128;24.750;2022-09-09T03:01:11;15.27;;;8.82;;
32874;SDS011;40468;42.128;24.750;2022-09-09T03:02:43;14.52;;;8.23;;
32874;SDS011;40468;42.128;24.750;2022-09-09T03:04:15;12.85;;;8.38;;
32874;SDS011;40468;42.128;24.750;2022-09-09T03:05:47;14.15;;;7.43;;
32874;SDS011;40468;42.128;24.750;2022-09-09T03:07:19;13.40;;;8.00;;
32874;SDS011;40468;42.128;24.750;2022-09-09T03:08:51;11.20;;;8.07;;
32874;SDS011;40468;42.128;24.750;2022-09-09T03:10:23;14.25;;;7.85;;
32874;SDS011;40468;42.128;24.750;2022-09-09T03:11:55;10.48;;;8.02;;
32874;SDS011;40468;42.128;24.750;2022-09-09T03:13:27;15.25;;;7.57;;
32874;SDS011;40468;42.128;24.750;2022-09-09T03:14:59;16.05;;;8.05;;
32874;SDS011;40468;42.128;24.750;2022-09-09T03:16:31;11.88;;;7.50;;
32874;SDS011;40468;42.128;24.750;2022-09-09T03:18:04;11.60;;;7.22;;
32874;SDS011;40468;42.128;24.750;2022-09-09T03:19:36;17.45;;;8.40;;
32874;SDS011;40468;42.128;24.750;2022-09-09T03:21:08;12.07;;;8.52;;
32874;SDS011;40468;42.128;24.750;2022-09-09T03:22:39;15.95;;;7.82;;
32874;SDS011;40468;42.128;24.750;2022-09-09T03:24:11;11.25;;;8.07;;
32874;SDS011;40468;42.128;24.750;2022-09-09T03:25:46;13.27;;;8.55;;
32874;SDS011;40468;42.128;24.750;2022-09-09T03:27:19;14.73;;;8.73;;
32874;SDS011;40468;42.128;24.750;2022-09-09T03:28:50;13.88;;;8.43;;
32874;SDS011;40468;42.128;24.750;2022-09-09T03:30:22;15.40;;;8.20;;
32874;SDS011;40468;42.128;24.750;2022-09-09T03:31:55;12.38;;;8.52;;
32874;SDS011;40468;42.128;24.750;2022-09-09T03:33:27;15.00;;;8.50;;
32874;SDS011;40468;42.128;24.750;2022-09-09T03:34:59;17.80;;;8.45;;
32874;SDS011;40468;42.128;24.750;2022-09-09T03:36:31;15.07;;;8.73;;
32874;SDS011;40468;42.128;24.750;2022-09-09T03:38:03;12.85;;;8.65;;
32874;SDS011;40468;42.128;24.750;2022-09-09T03:39:35;23.27;;;9.90;;
32874;SDS011;40468;42.128;24.750;2022-09-09T03:41:07;17.27;;;9.20;;
32874;SDS011;40468;42.128;24.750;2022-09-09T03:42:38;16.73;;;9.40;;
32874;SDS011;40468;42.128;24.750;2022-09-09T03:44:10;17.02;;;9.45;;
32874;SDS011;40468;42.128;24.750;2022-09-09T03:45:44;21.23;;;10.13;;
32874;SDS011;40468;42.128;24.750;2022-09-09T03:47:17;17.02;;;9.63;;
32874;SDS011;40468;42.128;24.750;2022-09-09T03:48:51;16.55;;;9.43;;
32874;SDS011;40468;42.128;24.750;2022-09-09T03:50:23;13.93;;;9.07;;
32874;SDS011;40468;42.128;24.750;2022-09-09T03:51:55;15.80;;;9.75;;
32874;SDS011;40468;42.128;24.750;2022-09-09T03:53:28;15.65;;;9.27;;
32874;SDS011;40468;42.128;24.750;2022-09-09T03:55:00;17.42;;;9.48;;
32874;SDS011;40468;42.128;24.750;2022-09-09T03:56:33;12.60;;;8.82;;
32874;SDS011;40468;42.128;24.750;2022-09-09T03:58:05;12.75;;;8.52;;
32874;SDS011;40468;42.128;24.750;2022-09-09T03:59:37;13.70;;;9.27;;
32874;SDS011;40468;42.128;24.750;2022-09-09T04:01:09;21.25;;;9.80;;
32874;SDS011;40468;42.128;24.750;2022-09-09T04:02:43;17.63;;;9.43;;
32874;SDS011;40468;42.128;24.750;2022-09-09T04:04:17;19.40;;;9.00;;
32874;SDS011;40468;42.128;24.750;2022-09-09T04:05:48;20.70;;;9.65;;
32874;SDS011;40468;42.128;24.750;2022-09-09T04:07:20;15.90;;;8.52;;
32874;SDS011;40468;42.128;24.750;2022-09-09T04:08:52;21.60;;;8.70;;
32874;SDS011;40468;42.128;24.750;2022-09-09T04:10:23;13.15;;;8.75;;
32874;SDS011;40468;42.128;24.750;2022-09-09T04:11:55;13.63;;;9.45;;
32874;SDS011;40468;42.128;24.750;2022-09-09T04:13:27;15.68;;;9.93;;
32874;SDS011;40468;42.128;24.750;2022-09-09T04:15:00;19.48;;;9.88;;
32874;SDS011;40468;42.128;24.750;2022-09-09T04:16:32;19.67;;;10.57;;
32874;SDS011;40468;42.128;24.750;2022-09-09T04:18:03;20.60;;;9.88;;
32874;SDS011;40468;42.128;24.750;2022-09-09T04:19:37;22.75;;;10.23;;
32874;SDS011;40468;42.128;24.750;2022-09-09T04:21:09;19.63;;;9.57;;
32874;SDS011;40468;42.128;24.750;2022-09-09T04:22:42;16.17;;;9.65;;
32874;SDS011;40468;42.128;24.750;2022-09-09T04:24:14;17.80;;;9.27;;
32874;SDS011;40468;42.128;24.750;2022-09-09T04:25:46;14.93;;;9.48;;
32874;SDS011;40468;42.128;24.750;2022-09-09T04:27:19;16.50;;;9.80;;
32874;SDS011;40468;42.128;24.750;2022-09-09T04:28:51;14.18;;;9.13;;
32874;SDS011;40468;42.128;24.750;2022-09-09T04:30:23;18.33;;;9.43;;
32874;SDS011;40468;42.128;24.750;2022-09-09T04:31:55;21.92;;;10.25;;
32874;SDS011;40468;42.128;24.750;2022-09-09T04:33:27;20.20;;;9.52;;
32874;SDS011;40468;42.128;24.750;2022-09-09T04:34:59;30.50;;;10.43;;
32874;SDS011;40468;42.128;24.750;2022-09-09T04:36:31;18.08;;;10.07;;
32874;SDS011;40468;42.128;24.750;2022-09-09T04:38:03;30.07;;;10.40;;
32874;SDS011;40468;42.128;24.750;2022-09-09T04:39:36;21.50;;;11.03;;
32874;SDS011;40468;42.128;24.750;2022-09-09T04:41:07;21.92;;;11.10;;
32874;SDS011;40468;42.128;24.750;2022-09-09T04:42:41;23.98;;;10.25;;
32874;SDS011;40468;42.128;24.750;2022-09-09T04:44:14;23.83;;;10.68;;
32874;SDS011;40468;42.128;24.750;2022-09-09T04:45:46;14.73;;;9.68;;
32874;SDS011;40468;42.128;24.750;2022-09-09T04:47:19;24.75;;;10.02;;
32874;SDS011;40468;42.128;24.750;2022-09-09T04:48:51;15.02;;;9.75;;
32874;SDS011;40468;42.128;24.750;2022-09-09T04:50:25;24.83;;;9.40;;
32874;SDS011;40468;42.128;24.750;2022-09-09T04:51:58;19.52;;;9.93;;
32874;SDS011;40468;42.128;24.750;2022-09-09T04:53:30;18.40;;;9.63;;
32874;SDS011;40468;42.128;24.750;2022-09-09T04:55:04;27.15;;;10.90;;
32874;SDS011;40468;42.128;24.750;2022-09-09T04:56:37;14.52;;;9.90;;
32874;SDS011;40468;42.128;24.750;2022-09-09T04:58:08;23.75;;;10.20;;
32874;SDS011;40468;42.128;24.750;2022-09-09T04:59:40;22.67;;;9.75;;
32874;SDS011;40468;42.128;24.750;2022-09-09T05:01:13;24.98;;;10.20;;
32874;SDS011;40468;42.128;24.750;2022-09-09T05:02:47;33.50;;;10.20;;
32874;SDS011;40468;42.128;24.750;2022-09-09T05:04:19;21.50;;;9.27;;
32874;SDS011;40468;42.128;24.750;2022-09-09T05:05:52;16.40;;;8.75;;
32874;SDS011;40468;42.128;24.750;2022-09-09T05:07:23;17.20;;;8.75;;
32874;SDS011;40468;42.128;24.750;2022-09-09T05:08:56;18.55;;;8.98;;
32874;SDS011;40468;42.128;24.750;2022-09-09T05:10:28;15.98;;;8.65;;
32874;SDS011;40468;42.128;24.750;2022-09-09T05:12:00;17.35;;;8.98;;
32874;SDS011;40468;42.128;24.750;2022-09-09T05:13:32;24.83;;;10.00;;
32874;SDS011;40468;42.128;24.750;2022-09-09T05:15:05;22.50;;;9.07;;
32874;SDS011;40468;42.128;24.750;2022-09-09T05:16:37;27.95;;;9.70;;
32874;SDS011;40468;42.128;24.750;2022-09-09T05:18:09;19.92;;;8.77;;
32874;SDS011;40468;42.128;24.750;2022-09-09T05:19:41;14.82;;;9.18;;
32874;SDS011;40468;42.128;24.750;2022-09-09T05:21:15;18.10;;;9.60;;
32874;SDS011;40468;42.128;24.750;2022-09-09T05:22:47;19.02;;;8.30;;
32874;SDS011;40468;42.128;24.750;2022-09-09T05:24:19;15.52;;;7.75;;
32874;SDS011;40468;42.128;24.750;2022-09-09T05:27:28;17.15;;;8.77;;
32874;SDS011;40468;42.128;24.750;2022-09-09T05:29:01;15.23;;;7.43;;
32874;SDS011;40468;42.128;24.750;2022-09-09T05:30:33;16.58;;;7.75;;
32874;SDS011;40468;42.128;24.750;2022-09-09T05:32:05;14.85;;;8.20;;
32874;SDS011;40468;42.128;24.750;2022-09-09T05:33:37;13.52;;;7.55;;
32874;SDS011;40468;42.128;24.750;2022-09-09T05:35:11;13.68;;;7.57;;
32874;SDS011;40468;42.128;24.750;2022-09-09T05:36:44;11.10;;;7.00;;
32874;SDS011;40468;42.128;24.750;2022-09-09T05:38:17;10.80;;;7.72;;
32874;SDS011;40468;42.128;24.750;2022-09-09T05:39:49;15.85;;;7.28;;
32874;SDS011;40468;42.128;24.750;2022-09-09T05:41:21;16.55;;;7.65;;
32874;SDS011;40468;42.128;24.750;2022-09-09T05:42:54;15.10;;;7.32;;
32874;SDS011;40468;42.128;24.750;2022-09-09T05:44:25;13.73;;;6.60;;
32874;SDS011;40468;42.128;24.750;2022-09-09T05:47:32;11.48;;;6.97;;
32874;SDS011;40468;42.128;24.750;2022-09-09T05:49:04;14.68;;;6.97;;
32874;SDS011;40468;42.128;24.750;2022-09-09T05:50:36;17.80;;;6.55;;
32874;SDS011;40468;42.128;24.750;2022-09-09T05:52:08;20.35;;;7.35;;
32874;SDS011;40468;42.128;24.750;2022-09-09T05:53:41;15.00;;;7.63;;
32874;SDS011;40468;42.128;24.750;2022-09-09T05:55:13;19.33;;;7.78;;
32874;SDS011;40468;42.128;24.750;2022-09-09T05:56:45;19.52;;;6.63;;
32874;SDS011;40468;42.128;24.750;2022-09-09T05:58:19;13.48;;;6.97;;
32874;SDS011;40468;42.128;24.750;2022-09-09T05:59:51;13.82;;;7.47;;
32874;SDS011;40468;42.128;24.750;2022-09-09T06:01:24;13.67;;;6.77;;
32874;SDS011;40468;42.128;24.750;2022-09-09T06:02:57;12.60;;;6.53;;
32874;SDS011;40468;42.128;24.750;2022-09-09T06:04:29;8.38;;;5.65;;
32874;SDS011;40468;42.128;24.750;2022-09-09T06:06:02;13.40;;;5.68;;
32874;SDS011;40468;42.128;24.750;2022-09-09T06:07:37;13.30;;;6.57;;
32874;SDS011;40468;42.128;24.750;2022-09-09T06:09:12;13.63;;;6.75;;
32874;SDS011;40468;42.128;24.750;2022-09-09T06:12:15;15.40;;;6.00;;
32874;SDS011;40468;42.128;24.750;2022-09-09T06:13:47;11.85;;;6.05;;
32874;SDS011;40468;42.128;24.750;2022-09-09T06:15:21;10.88;;;5.70;;
32874;SDS011;40468;42.128;24.750;2022-09-09T06:16:53;11.70;;;5.47;;
32874;SDS011;40468;42.128;24.750;2022-09-09T06:18:26;16.55;;;6.10;;
32874;SDS011;40468;42.128;24.750;2022-09-09T06:21:31;14.05;;;5.55;;
32874;SDS011;40468;42.128;24.750;2022-09-09T06:23:07;11.85;;;5.53;;
32874;SDS011;40468;42.128;24.750;2022-09-09T06:24:39;10.63;;;5.93;;
32874;SDS011;40468;42.128;24.750;2022-09-09T06:26:11;15.73;;;6.32;;
32874;SDS011;40468;42.128;24.750;2022-09-09T06:29:19;13.15;;;6.82;;
32874;SDS011;40468;42.128;24.750;2022-09-09T06:30:56;14.05;;;6.05;;
32874;SDS011;40468;42.128;24.750;2022-09-09T06:32:29;13.35;;;5.53;;
32874;SDS011;40468;42.128;24.750;2022-09-09T06:34:04;12.00;;;6.38;;
32874;SDS011;40468;42.128;24.750;2022-09-09T06:35:36;11.93;;;6.47;;
32874;SDS011;40468;42.128;24.750;2022-09-09T06:37:08;12.68;;;6.47;;
32874;SDS011;40468;42.128;24.750;2022-09-09T06:38:42;27.02;;;7.78;;
32874;SDS011;40468;42.128;24.750;2022-09-09T06:40:14;11.15;;;6.30;;
32874;SDS011;40468;42.128;24.750;2022-09-09T06:41:46;10.60;;;5.72;;
32874;SDS011;40468;42.128;24.750;2022-09-09T06:43:18;18.10;;;5.93;;
32874;SDS011;40468;42.128;24.750;2022-09-09T06:44:50;12.07;;;6.00;;
32874;SDS011;40468;42.128;24.750;2022-09-09T06:46:24;13.98;;;5.93;;
32874;SDS011;40468;42.128;24.750;2022-09-09T06:47:57;11.88;;;5.72;;
32874;SDS011;40468;42.128;24.750;2022-09-09T06:49:29;9.07;;;5.45;;
32874;SDS011;40468;42.128;24.750;2022-09-09T06:51:02;10.13;;;5.30;;
32874;SDS011;40468;42.128;24.750;2022-09-09T06:52:34;10.88;;;5.93;;
32874;SDS011;40468;42.128;24.750;2022-09-09T06:54:07;12.18;;;5.57;;
32874;SDS011;40468;42.128;24.750;2022-09-09T06:55:39;7.28;;;5.35;;
32874;SDS011;40468;42.128;24.750;2022-09-09T06:57:14;11.80;;;5.70;;
32874;SDS011;40468;42.128;24.750;2022-09-09T06:58:46;14.27;;;5.80;;
32874;SDS011;40468;42.128;24.750;2022-09-09T07:00:18;10.07;;;5.72;;
32874;SDS011;40468;42.128;24.750;2022-09-09T07:01:50;9.65;;;5.38;;
32874;SDS011;40468;42.128;24.750;2022-09-09T07:03:24;14.88;;;4.88;;
32874;SDS011;40468;42.128;24.750;2022-09-09T07:04:56;12.18;;;5.35;;
32874;SDS011;40468;42.128;24.750;2022-09-09T07:06:29;7.93;;;4.43;;
32874;SDS011;40468;42.128;24.750;2022-09-09T07:08:03;12.55;;;5.10;;
32874;SDS011;40468;42.128;24.750;2022-09-09T07:09:36;14.67;;;5.43;;
32874;SDS011;40468;42.128;24.750;2022-09-09T07:11:09;15.23;;;4.85;;
32874;SDS011;40468;42.128;24.750;2022-09-09T07:12:41;15.50;;;6.38;;
32874;SDS011;40468;42.128;24.750;2022-09-09T07:14:13;8.30;;;5.00;;
32874;SDS011;40468;42.128;24.750;2022-09-09T07:15:46;12.38;;;4.72;;
32874;SDS011;40468;42.128;24.750;2022-09-09T07:17:17;9.32;;;4.93;;
32874;SDS011;40468;42.128;24.750;2022-09-09T07:18:49;8.55;;;5.40;;
32874;SDS011;40468;42.128;24.750;2022-09-09T07:20:22;15.02;;;5.53;;
32874;SDS011;40468;42.128;24.750;2022-09-09T07:21:54;22.38;;;5.28;;
32874;SDS011;40468;42.128;24.750;2022-09-09T07:23:26;7.82;;;5.30;;
32874;SDS011;40468;42.128;24.750;2022-09-09T07:24:58;12.30;;;5.57;;
32874;SDS011;40468;42.128;24.750;2022-09-09T07:26:30;18.38;;;5.75;;
32874;SDS011;40468;42.128;24.750;2022-09-09T07:28:02;11.32;;;4.65;;
32874;SDS011;40468;42.128;24.750;2022-09-09T07:29:34;10.65;;;4.55;;
32874;SDS011;40468;42.128;24.750;2022-09-09T07:31:06;10.15;;;4.90;;
32874;SDS011;40468;42.128;24.750;2022-09-09T07:32:45;12.77;;;4.93;;
32874;SDS011;40468;42.128;24.750;2022-09-09T07:34:17;12.88;;;5.55;;
32874;SDS011;40468;42.128;24.750;2022-09-09T07:35:49;9.15;;;5.80;;
32874;SDS011;40468;42.128;24.750;2022-09-09T07:37:21;11.13;;;4.90;;
32874;SDS011;40468;42.128;24.750;2022-09-09T07:38:54;11.75;;;4.80;;
32874;SDS011;40468;42.128;24.750;2022-09-09T07:40:29;14.38;;;5.00;;
32874;SDS011;40468;42.128;24.750;2022-09-09T07:42:01;10.38;;;4.70;;
32874;SDS011;40468;42.128;24.750;2022-09-09T07:43:34;7.45;;;4.82;;
32874;SDS011;40468;42.128;24.750;2022-09-09T07:45:06;12.38;;;4.50;;
32874;SDS011;40468;42.128;24.750;2022-09-09T07:46:38;11.10;;;4.63;;
32874;SDS011;40468;42.128;24.750;2022-09-09T07:48:11;7.65;;;4.40;;
32874;SDS011;40468;42.128;24.750;2022-09-09T07:49:43;16.13;;;4.72;;
32874;SDS011;40468;42.128;24.750;2022-09-09T07:52:49;14.50;;;6.55;;
32874;SDS011;40468;42.128;24.750;2022-09-09T07:54:22;10.87;;;4.53;;
32874;SDS011;40468;42.128;24.750;2022-09-09T07:56:03;54.53;;;31.08;;
32874;SDS011;40468;42.128;24.750;2022-09-09T07:57:35;14.15;;;5.50;;
32874;SDS011;40468;42.128;24.750;2022-09-09T07:59:07;10.77;;;4.50;;
32874;SDS011;40468;42.128;24.750;2022-09-09T08:00:40;7.55;;;3.88;;
32874;SDS011;40468;42.128;24.750;2022-09-09T08:02:13;9.90;;;5.13;;
32874;SDS011;40468;42.128;24.750;2022-09-09T08:03:45;8.35;;;4.90;;
32874;SDS011;40468;42.128;24.750;2022-09-09T08:05:17;7.90;;;3.80;;
32874;SDS011;40468;42.128;24.750;2022-09-09T08:06:50;10.43;;;4.35;;
32874;SDS011;40468;42.128;24.750;2022-09-09T08:08:24;8.80;;;4.10;;
32874;SDS011;40468;42.128;24.750;2022-09-09T08:09:56;9.35;;;3.45;;
32874;SDS011;40468;42.128;24.750;2022-09-09T08:11:30;8.00;;;3.58;;
32874;SDS011;40468;42.128;24.750;2022-09-09T08:13:03;7.93;;;3.42;;
32874;SDS011;40468;42.128;24.750;2022-09-09T08:14:35;11.50;;;4.30;;
32874;SDS011;40468;42.128;24.750;2022-09-09T08:16:08;7.30;;;3.72;;
32874;SDS011;40468;42.128;24.750;2022-09-09T08:17:41;6.80;;;3.40;;
32874;SDS011;40468;42.128;24.750;2022-09-09T08:19:14;7.70;;;3.73;;
32874;SDS011;40468;42.128;24.750;2022-09-09T08:20:46;12.57;;;4.50;;
32874;SDS011;40468;42.128;24.750;2022-09-09T08:22:18;9.10;;;3.92;;
32874;SDS011;40468;42.128;24.750;2022-09-09T08:23:51;7.68;;;3.88;;
32874;SDS011;40468;42.128;24.750;2022-09-09T08:25:24;9.35;;;4.50;;
32874;SDS011;40468;42.128;24.750;2022-09-09T08:26:57;9.20;;;4.30;;
32874;SDS011;40468;42.128;24.750;2022-09-09T08:28:29;7.65;;;4.30;;
32874;SDS011;40468;42.128;24.750;2022-09-09T08:30:01;6.28;;;3.85;;
32874;SDS011;40468;42.128;24.750;2022-09-09T08:31:34;9.10;;;4.35;;
32874;SDS011;40468;42.128;24.750;2022-09-09T08:33:08;9.15;;;3.90;;
32874;SDS011;40468;42.128;24.750;2022-09-09T08:34:40;10.20;;;3.45;;
32874;SDS011;40468;42.128;24.750;2022-09-09T08:36:13;8.82;;;4.65;;
32874;SDS011;40468;42.128;24.750;2022-09-09T08:37:45;10.57;;;3.78;;
32874;SDS011;40468;42.128;24.750;2022-09-09T08:39:17;6.60;;;3.92;;
32874;SDS011;40468;42.128;24.750;2022-09-09T08:40:50;10.13;;;5.10;;
32874;SDS011;40468;42.128;24.750;2022-09-09T08:42:34;11.32;;;5.50;;
32874;SDS011;40468;42.128;24.750;2022-09-09T08:44:10;9.30;;;4.10;;
32874;SDS011;40468;42.128;24.750;2022-09-09T08:45:48;9.90;;;4.15;;
32874;SDS011;40468;42.128;24.750;2022-09-09T08:47:28;11.75;;;4.30;;
32874;SDS011;40468;42.128;24.750;2022-09-09T08:49:13;8.77;;;4.03;;
32874;SDS011;40468;42.128;24.750;2022-09-09T08:51:02;10.07;;;3.90;;
32874;SDS011;40468;42.128;24.750;2022-09-09T08:52:37;10.32;;;4.72;;
32874;SDS011;40468;42.128;24.750;2022-09-09T08:54:17;12.18;;;3.85;;
32874;SDS011;40468;42.128;24.750;2022-09-09T08:55:49;9.07;;;4.00;;
32874;SDS011;40468;42.128;24.750;2022-09-09T08:57:23;9.05;;;4.00;;
32874;SDS011;40468;42.128;24.750;2022-09-09T08:59:00;10.40;;;4.35;;
32874;SDS011;40468;42.128;24.750;2022-09-09T09:00:36;5.53;;;3.72;;
32874;SDS011;40468;42.128;24.750;2022-09-09T09:02:17;6.82;;;4.05;;
32874;SDS011;40468;42.128;24.750;2022-09-09T09:03:53;7.95;;;4.15;;
32874;SDS011;40468;42.128;24.750;2022-09-09T09:05:35;9.35;;;4.05;;
32874;SDS011;40468;42.128;24.750;2022-09-09T09:07:15;14.18;;;4.85;;
32874;SDS011;40468;42.128;24.750;2022-09-09T09:08:58;8.25;;;4.57;;
32874;SDS011;40468;42.128;24.750;2022-09-09T09:10:37;9.20;;;4.03;;
32874;SDS011;40468;42.128;24.750;2022-09-09T09:12:18;9.95;;;4.30;;
32874;SDS011;40468;42.128;24.750;2022-09-09T09:13:53;8.00;;;4.22;;
32874;SDS011;40468;42.128;24.750;2022-09-09T09:15:30;11.45;;;4.68;;
32874;SDS011;40468;42.128;24.750;2022-09-09T09:17:09;6.75;;;4.28;;
32874;SDS011;40468;42.128;24.750;2022-09-09T09:18:45;7.47;;;4.05;;
32874;SDS011;40468;42.128;24.750;2022-09-09T09:20:18;11.77;;;4.50;;
32874;SDS011;40468;42.128;24.750;2022-09-09T09:22:02;4.88;;;4.13;;
32874;SDS011;40468;42.128;24.750;2022-09-09T09:23:42;10.43;;;4.72;;
32874;SDS011;40468;42.128;24.750;2022-09-09T09:25:21;17.05;;;4.70;;
32874;SDS011;40468;42.128;24.750;2022-09-09T09:26:54;10.75;;;4.30;;
32874;SDS011;40468;42.128;24.750;2022-09-09T09:28:27;11.43;;;4.60;;